sensor_id;sensor_type;location;lat;lon;timestamp;pressure;altitude;pressure_sealevel;temperature
1532;BMP280;759;53.170;8.210;2024-01-11T17:03:29;99552.88;;;0.81
1532;BMP280;759;53.170;8.210;2024-01-11T17:05:54;99559.66;;;0.82
1532;BMP280;759;53.170;8.210;2024-01-11T17:08:19;99542.78;;;0.83
1532;BMP280;759;53.170;8.210;2024-01-11T17:10:45;99552.97;;;0.84
1532;BMP280;759;53.170;8.210;2024-01-11T17:13:10;99550.00;;;0.86
1532;BMP280;759;53.170;8.210;2024-01-11T17:15:35;99553.03;;;0.88
1532;BMP280;759;53.170;8.210;2024-01-11T17:18:00;99523.28;;;0.87
1532;BMP280;759;53.170;8.210;2024-01-11T17:20:26;99510.91;;;0.88
1532;BMP280;759;53.170;8.210;2024-01-11T17:22:51;99487.56;;;0.86
1532;BMP280;759;53.170;8.210;2024-01-11T17:25:16;99477.78;;;0.87
1532;BMP280;759;53.170;8.210;2024-01-11T17:27:42;99433.00;;;0.87
1532;BMP280;759;53.170;8.210;2024-01-11T17:30:07;99420.34;;;0.92
1532;BMP280;759;53.170;8.210;2024-01-11T17:32:33;99045.69;;;0.92
1532;BMP280;759;53.170;8.210;2024-01-11T17:34:59;99077.34;;;0.95
1532;BMP280;759;53.170;8.210;2024-01-11T17:37:24;99084.06;;;0.93
1532;BMP280;759;53.170;8.210;2024-01-11T17:39:50;99099.03;;;0.89
1532;BMP280;759;53.170;8.210;2024-01-11T17:42:16;99117.06;;;0.87
1532;BMP280;759;53.170;8.210;2024-01-11T17:44:41;99131.72;;;0.84
1532;BMP280;759;53.170;8.210;2024-01-11T17:47:06;99150.13;;;0.84
1532;BMP280;759;53.170;8.210;2024-01-11T17:49:32;99153.13;;;0.83
1532;BMP280;759;53.170;8.210;2024-01-11T17:51:57;99149.69;;;0.78
1532;BMP280;759;53.170;8.210;2024-01-11T17:54:22;99136.53;;;0.78
1532;BMP280;759;53.170;8.210;2024-01-11T17:56:48;99147.41;;;0.77
1532;BMP280;759;53.170;8.210;2024-01-11T17:59:14;99145.50;;;0.77
1532;BMP280;759;53.170;8.210;2024-01-11T18:01:39;99171.44;;;0.75
1532;BMP280;759;53.170;8.210;2024-01-11T18:04:04;99163.53;;;0.75
1532;BMP280;759;53.170;8.210;2024-01-11T18:06:29;99163.88;;;0.74
1532;BMP280;759;53.170;8.210;2024-01-11T18:08:55;99159.81;;;0.76
1532;BMP280;759;53.170;8.210;2024-01-11T18:11:20;99013.91;;;0.77
1532;BMP280;759;53.170;8.210;2024-01-11T18:13:45;99018.81;;;0.79
1532;BMP280;759;53.170;8.210;2024-01-11T18:16:10;98986.81;;;0.77
1532;BMP280;759;53.170;8.210;2024-01-11T18:18:35;98948.44;;;0.76
1532;BMP280;759;53.170;8.210;2024-01-11T18:21:01;98968.75;;;0.75
1532;BMP280;759;53.170;8.210;2024-01-11T18:23:26;98982.25;;;0.74
1532;BMP280;759;53.170;8.210;2024-01-11T18:25:51;98984.50;;;0.72
1532;BMP280;759;53.170;8.210;2024-01-11T18:28:17;99062.66;;;0.68
1532;BMP280;759;53.170;8.210;2024-01-11T18:30:42;99106.94;;;0.62
1532;BMP280;759;53.170;8.210;2024-01-11T18:33:07;99209.97;;;0.64
1532;BMP280;759;53.170;8.210;2024-01-11T18:35:32;99112.53;;;0.61
1532;BMP280;759;53.170;8.210;2024-01-11T18:37:57;99107.63;;;0.59
1532;BMP280;759;53.170;8.210;2024-01-11T18:40:24;98997.88;;;0.59
1532;BMP280;759;53.170;8.210;2024-01-11T18:42:49;98922.63;;;0.55
1532;BMP280;759;53.170;8.210;2024-01-11T18:45:15;98829.34;;;0.49
1532;BMP280;759;53.170;8.210;2024-01-11T18:47:40;76361.41;;;-147.12
1532;BMP280;759;53.170;8.210;2024-01-11T18:50:06;76361.41;;;-147.12
1532;BMP280;759;53.170;8.210;2024-01-11T18:52:31;76361.41;;;-147.12
1532;BMP280;759;53.170;8.210;2024-01-11T18:54:56;76361.41;;;-147.12
1532;BMP280;759;53.170;8.210;2024-01-11T18:57:21;76361.41;;;-147.12
1532;BMP280;759;53.170;8.210;2024-01-11T18:59:47;76361.41;;;-147.12
1532;BMP280;759;53.170;8.210;2024-01-11T19:02:12;76361.41;;;-147.12
1532;BMP280;759;53.170;8.210;2024-01-11T19:04:37;76361.41;;;-147.12
1532;BMP280;759;53.170;8.210;2024-01-11T19:07:02;76361.41;;;-147.12
1532;BMP280;759;53.170;8.210;2024-01-11T19:09:28;76361.41;;;-147.12
1532;BMP280;759;53.170;8.210;2024-01-11T19:11:53;76361.41;;;-147.12
1532;BMP280;759;53.170;8.210;2024-01-11T19:14:18;76361.41;;;-147.12
1532;BMP280;759;53.170;8.210;2024-01-11T19:16:44;76361.41;;;-147.12
1532;BMP280;759;53.170;8.210;2024-01-11T19:19:10;76361.41;;;-147.12
1532;BMP280;759;53.170;8.210;2024-01-11T19:21:38;76361.41;;;-147.12
1532;BMP280;759;53.170;8.210;2024-01-11T19:24:03;76361.41;;;-147.12
1532;BMP280;759;53.170;8.210;2024-01-11T19:26:28;76361.41;;;-147.12
1532;BMP280;759;53.170;8.210;2024-01-11T19:28:53;76361.41;;;-147.12
1532;BMP280;759;53.170;8.210;2024-01-11T19:31:19;76361.41;;;-147.12
1532;BMP280;759;53.170;8.210;2024-01-11T19:33:44;76361.41;;;-147.12
1532;BMP280;759;53.170;8.210;2024-01-11T19:36:09;76361.41;;;-147.12
1532;BMP280;759;53.170;8.210;2024-01-11T19:38:34;76361.41;;;-147.12
1532;BMP280;759;53.170;8.210;2024-01-11T19:41:04;76361.41;;;-147.12
1532;BMP280;759;53.170;8.210;2024-01-11T19:43:29;76361.41;;;-147.12
1532;BMP280;759;53.170;8.210;2024-01-11T19:45:54;76361.41;;;-147.12
1532;BMP280;759;53.170;8.210;2024-01-11T19:48:19;76361.41;;;-147.12
1532;BMP280;759;53.170;8.210;2024-01-11T19:50:44;76361.41;;;-147.12
1532;BMP280;759;53.170;8.210;2024-01-11T19:53:12;76361.41;;;-147.12
1532;BMP280;759;53.170;8.210;2024-01-11T19:55:37;76361.41;;;-147.12
1532;BMP280;759;53.170;8.210;2024-01-11T19:58:05;76361.41;;;-147.12
1532;BMP280;759;53.170;8.210;2024-01-11T20:00:30;76361.41;;;-147.12
1532;BMP280;759;53.170;8.210;2024-01-11T20:02:55;76361.41;;;-147.12
1532;BMP280;759;53.170;8.210;2024-01-11T20:05:22;76361.41;;;-147.12
1532;BMP280;759;53.170;8.210;2024-01-11T20:07:47;76361.41;;;-147.12
1532;BMP280;759;53.170;8.210;2024-01-11T20:10:12;76361.41;;;-147.12
1532;BMP280;759;53.170;8.210;2024-01-11T20:12:38;76361.41;;;-147.12
1532;BMP280;759;53.170;8.210;2024-01-11T20:15:03;76361.41;;;-147.12
1532;BMP280;759;53.170;8.210;2024-01-11T20:17:29;76361.41;;;-147.12
1532;BMP280;759;53.170;8.210;2024-01-11T20:19:54;76361.41;;;-147.12
1532;BMP280;759;53.170;8.210;2024-01-11T20:22:19;76361.41;;;-147.12
1532;BMP280;759;53.170;8.210;2024-01-11T20:24:44;76361.41;;;-147.12
1532;BMP280;759;53.170;8.210;2024-01-11T20:27:10;76361.41;;;-147.12
1532;BMP280;759;53.170;8.210;2024-01-11T20:29:35;76361.41;;;-147.12
1532;BMP280;759;53.170;8.210;2024-01-11T20:32:01;76361.41;;;-147.12
1532;BMP280;759;53.170;8.210;2024-01-11T20:34:27;76361.41;;;-147.12
1532;BMP280;759;53.170;8.210;2024-01-11T20:36:52;76361.41;;;-147.12
1532;BMP280;759;53.170;8.210;2024-01-11T20:39:18;76361.41;;;-147.12
1532;BMP280;759;53.170;8.210;2024-01-11T20:41:44;76361.41;;;-147.12
1532;BMP280;759;53.170;8.210;2024-01-11T20:44:09;76361.41;;;-147.12
1532;BMP280;759;53.170;8.210;2024-01-11T20:46:34;76361.41;;;-147.12
1532;BMP280;759;53.170;8.210;2024-01-11T20:49:00;76361.41;;;-147.12
1532;BMP280;759;53.170;8.210;2024-01-11T20:51:25;76361.41;;;-147.12
1532;BMP280;759;53.170;8.210;2024-01-11T20:53:50;76361.41;;;-147.12
1532;BMP280;759;53.170;8.210;2024-01-11T20:56:19;76361.41;;;-147.12
1532;BMP280;759;53.170;8.210;2024-01-11T20:58:45;76361.41;;;-147.12
1532;BMP280;759;53.170;8.210;2024-01-11T21:01:10;76361.41;;;-147.12
1532;BMP280;759;53.170;8.210;2024-01-11T21:03:36;76361.41;;;-147.12
1532;BMP280;759;53.170;8.210;2024-01-11T21:06:01;76361.41;;;-147.12
1532;BMP280;759;53.170;8.210;2024-01-11T21:08:26;76361.41;;;-147.12
1532;BMP280;759;53.170;8.210;2024-01-11T21:10:52;76361.41;;;-147.12
1532;BMP280;759;53.170;8.210;2024-01-11T21:13:17;76361.41;;;-147.12
1532;BMP280;759;53.170;8.210;2024-01-11T21:15:42;76361.41;;;-147.12
1532;BMP280;759;53.170;8.210;2024-01-11T21:18:08;76361.41;;;-147.12
1532;BMP280;759;53.170;8.210;2024-01-11T21:20:34;76361.41;;;-147.12
1532;BMP280;759;53.170;8.210;2024-01-11T21:22:59;76361.41;;;-147.12
1532;BMP280;759;53.170;8.210;2024-01-11T21:25:24;76361.41;;;-147.12
1532;BMP280;759;53.170;8.210;2024-01-11T21:27:50;76361.41;;;-147.12
1532;BMP280;759;53.170;8.210;2024-01-11T21:30:15;76361.41;;;-147.12
1532;BMP280;759;53.170;8.210;2024-01-11T21:32:40;76361.41;;;-147.12
1532;BMP280;759;53.170;8.210;2024-01-11T21:35:06;76361.41;;;-147.12
1532;BMP280;759;53.170;8.210;2024-01-11T21:37:31;76361.41;;;-147.12
1532;BMP280;759;53.170;8.210;2024-01-11T21:39:56;76361.41;;;-147.12
1532;BMP280;759;53.170;8.210;2024-01-11T21:42:22;76361.41;;;-147.12
1532;BMP280;759;53.170;8.210;2024-01-11T21:44:47;76361.41;;;-147.12
1532;BMP280;759;53.170;8.210;2024-01-11T21:47:12;76361.41;;;-147.12
1532;BMP280;759;53.170;8.210;2024-01-11T21:49:38;76361.41;;;-147.12
1532;BMP280;759;53.170;8.210;2024-01-11T21:52:03;76361.41;;;-147.12
1532;BMP280;759;53.170;8.210;2024-01-11T21:54:28;76361.41;;;-147.12
1532;BMP280;759;53.170;8.210;2024-01-11T21:56:53;76361.41;;;-147.12
1532;BMP280;759;53.170;8.210;2024-01-11T21:59:21;76361.41;;;-147.12
1532;BMP280;759;53.170;8.210;2024-01-11T22:01:47;76361.41;;;-147.12
1532;BMP280;759;53.170;8.210;2024-01-11T22:04:13;76361.41;;;-147.12
1532;BMP280;759;53.170;8.210;2024-01-11T22:06:39;76361.41;;;-147.12
1532;BMP280;759;53.170;8.210;2024-01-11T22:09:04;76361.41;;;-147.12
1532;BMP280;759;53.170;8.210;2024-01-11T22:11:30;76361.41;;;-147.12
1532;BMP280;759;53.170;8.210;2024-01-11T22:13:55;76361.41;;;-147.12
1532;BMP280;759;53.170;8.210;2024-01-11T22:16:20;76361.41;;;-147.12
1532;BMP280;759;53.170;8.210;2024-01-11T22:18:46;76361.41;;;-147.12
1532;BMP280;759;53.170;8.210;2024-01-11T22:21:11;76361.41;;;-147.12
1532;BMP280;759;53.170;8.210;2024-01-11T22:23:38;76361.41;;;-147.12
1532;BMP280;759;53.170;8.210;2024-01-11T22:26:03;76361.41;;;-147.12
1532;BMP280;759;53.170;8.210;2024-01-11T22:28:28;76361.41;;;-147.12
1532;BMP280;759;53.170;8.210;2024-01-11T22:30:53;76361.41;;;-147.12
1532;BMP280;759;53.170;8.210;2024-01-11T22:33:19;76361.41;;;-147.12
1532;BMP280;759;53.170;8.210;2024-01-11T22:35:44;76361.41;;;-147.12
1532;BMP280;759;53.170;8.210;2024-01-11T22:38:09;76361.41;;;-147.12
1532;BMP280;759;53.170;8.210;2024-01-11T22:40:35;76361.41;;;-147.12
1532;BMP280;759;53.170;8.210;2024-01-11T22:43:00;76361.41;;;-147.12
1532;BMP280;759;53.170;8.210;2024-01-11T22:45:25;76361.41;;;-147.12
1532;BMP280;759;53.170;8.210;2024-01-11T22:47:50;76361.41;;;-147.12
1532;BMP280;759;53.170;8.210;2024-01-11T22:50:15;76361.41;;;-147.12
1532;BMP280;759;53.170;8.210;2024-01-11T22:52:40;76361.41;;;-147.12
1532;BMP280;759;53.170;8.210;2024-01-11T22:55:06;76361.41;;;-147.12
1532;BMP280;759;53.170;8.210;2024-01-11T22:57:31;76361.41;;;-147.12
1532;BMP280;759;53.170;8.210;2024-01-11T22:59:57;76361.41;;;-147.12
1532;BMP280;759;53.170;8.210;2024-01-11T23:02:22;76361.41;;;-147.12
1532;BMP280;759;53.170;8.210;2024-01-11T23:04:47;76361.41;;;-147.12
1532;BMP280;759;53.170;8.210;2024-01-11T23:07:12;76361.41;;;-147.12
1532;BMP280;759;53.170;8.210;2024-01-11T23:09:38;76361.41;;;-147.12
1532;BMP280;759;53.170;8.210;2024-01-11T23:12:03;76361.41;;;-147.12
1532;BMP280;759;53.170;8.210;2024-01-11T23:14:28;76361.41;;;-147.12
1532;BMP280;759;53.170;8.210;2024-01-11T23:16:53;76361.41;;;-147.12
1532;BMP280;759;53.170;8.210;2024-01-11T23:19:19;76361.41;;;-147.12
1532;BMP280;759;53.170;8.210;2024-01-11T23:21:44;76361.41;;;-147.12
1532;BMP280;759;53.170;8.210;2024-01-11T23:24:12;76361.41;;;-147.12
1532;BMP280;759;53.170;8.210;2024-01-11T23:26:37;76361.41;;;-147.12
1532;BMP280;759;53.170;8.210;2024-01-11T23:29:02;76361.41;;;-147.12
1532;BMP280;759;53.170;8.210;2024-01-11T23:31:28;76361.41;;;-147.12
1532;BMP280;759;53.170;8.210;2024-01-11T23:33:53;76361.41;;;-147.12
1532;BMP280;759;53.170;8.210;2024-01-11T23:36:18;76361.41;;;-147.12
1532;BMP280;759;53.170;8.210;2024-01-11T23:38:43;76361.41;;;-147.12
1532;BMP280;759;53.170;8.210;2024-01-11T23:41:09;76361.41;;;-147.12
1532;BMP280;759;53.170;8.210;2024-01-11T23:43:34;76361.41;;;-147.12
1532;BMP280;759;53.170;8.210;2024-01-11T23:45:59;76361.41;;;-147.12
1532;BMP280;759;53.170;8.210;2024-01-11T23:48:24;76361.41;;;-147.12
1532;BMP280;759;53.170;8.210;2024-01-11T23:50:50;76361.41;;;-147.12
1532;BMP280;759;53.170;8.210;2024-01-11T23:53:15;76361.41;;;-147.12
1532;BMP280;759;53.170;8.210;2024-01-11T23:55:40;76361.41;;;-147.12
1532;BMP280;759;53.170;8.210;2024-01-11T23:58:05;76361.41;;;-147.12
